Time;durP1;ratioP1;P1;durP2;ratioP2;P2;SDS_P1;SDS_P2;PMS_P1;PMS_P2;Temp;Humidity;BMP_temperature;BMP_pressure;BME280_temperature;BME280_humidity;BME280_pressure;Samples;Min_cycle;Max_cycle;Signal;HPM_P1;HPM_P2
2023/05/15 00:01:32;;;;;;;;;;;13.50;99.90;;;;;;5018947;28;19929;-69
2023/05/15 00:03:59;;;;;;;;;;;13.50;99.90;;;;;;5016055;28;19930;-68
2023/05/15 00:06:27;;;;;;;;;;;13.50;99.90;;;;;;5016519;28;19964;-69
2023/05/15 00:08:54;;;;;;;;;;;13.60;99.90;;;;;;5018660;28;20020;-69
2023/05/15 00:11:22;;;;;;;;;;;13.60;99.90;;;;;;5027428;28;19932;-69
2023/05/15 00:13:49;;;;;;;;;;;13.70;99.90;;;;;;5024862;28;19929;-69
2023/05/15 00:16:17;;;;;;;;;;;13.60;99.90;;;;;;5017939;28;19925;-70
2023/05/15 00:18:44;;;;;;;;;;;13.70;99.90;;;;;;5020097;28;19932;-70
2023/05/15 00:21:11;;;;;;;;;;;13.70;99.90;;;;;;5019474;28;20348;-69
2023/05/15 00:23:38;;;;;;;;;;;13.70;99.90;;;;;;5003638;28;20332;-69
2023/05/15 00:26:04;;;;;;;;;;;13.80;99.90;;;;;;5022297;28;19930;-70
2023/05/15 00:28:31;;;;;;;;;;;13.80;99.90;;;;;;5015975;28;19926;-69
2023/05/15 00:30:58;;;;;;;;;;;13.80;99.90;;;;;;5025624;28;19929;-69
2023/05/15 00:33:27;;;;;;;;;;;13.80;99.90;;;;;;5024978;28;20393;-69
2023/05/15 00:35:54;;;;;;;;;;;13.80;99.90;;;;;;5023815;28;19936;-69
2023/05/15 00:38:20;;;;;;;;;;;13.70;99.90;;;;;;5027436;28;19961;-69
2023/05/15 00:40:48;;;;;;;;;;;13.80;99.90;;;;;;5013577;28;19933;-69
2023/05/15 00:43:15;;;;;;;;;;;13.70;99.90;;;;;;5025773;28;19925;-70
2023/05/15 00:45:42;;;;;;;;;;;13.80;99.90;;;;;;5024879;28;19929;-69
2023/05/15 00:48:09;;;;;;;;;;;13.80;99.90;;;;;;5019335;28;19933;-69
2023/05/15 00:50:40;;;;;;;;;;;13.80;99.90;;;;;;5019202;28;19926;-67
2023/05/15 00:53:07;;;;;;;;;;;13.80;99.90;;;;;;5020972;28;19932;-68
2023/05/15 00:55:34;;;;;;;;;;;13.80;99.90;;;;;;5041896;28;20356;-69
2023/05/15 00:58:01;;;;;;;;;;;13.80;99.90;;;;;;5014514;28;19931;-69
2023/05/15 01:00:28;;;;;;;;;;;13.80;99.90;;;;;;5017517;28;19932;-70
2023/05/15 01:02:55;;;;;;;;;;;13.80;99.90;;;;;;5021995;28;19925;-69
2023/05/15 01:05:21;;;;;;;;;;;13.80;99.90;;;;;;5015029;28;19941;-70
2023/05/15 01:07:52;;;;;;;;;;;13.80;99.90;;;;;;5018436;28;19925;-69
2023/05/15 01:10:19;;;;;;;;;;;13.80;99.90;;;;;;5038726;28;19980;-69
2023/05/15 01:12:47;;;;;;;;;;;13.80;99.90;;;;;;5022589;28;19987;-69
2023/05/15 01:15:14;;;;;;;;;;;13.70;99.90;;;;;;5013881;28;19926;-69
2023/05/15 01:17:41;;;;;;;;;;;13.70;99.90;;;;;;5021099;28;19925;-69
2023/05/15 01:20:09;;;;;;;;;;;13.70;99.90;;;;;;5021460;28;19948;-69
2023/05/15 01:22:53;;;;;;;;;;;13.70;99.90;;;;;;5011958;28;19933;-68
2023/05/15 01:25:37;;;;;;;;;;;13.80;99.90;;;;;;5024600;28;20027;-69
2023/05/15 01:28:09;;;;;;;;;;;13.80;99.90;;;;;;5022172;28;19932;-70
2023/05/15 01:30:38;;;;;;;;;;;13.80;99.90;;;;;;5020731;28;19965;-68
2023/05/15 01:33:06;;;;;;;;;;;13.80;99.90;;;;;;5025781;28;19929;-69
2023/05/15 01:35:35;;;;;;;;;;;13.80;99.90;;;;;;5027475;28;19925;-69
2023/05/15 01:38:07;;;;;;;;;;;13.80;99.90;;;;;;5023685;28;19932;-69
2023/05/15 01:40:34;;;;;;;;;;;13.70;99.90;;;;;;5016815;28;19925;-69
2023/05/15 01:43:05;;;;;;;;;;;13.70;99.90;;;;;;5027757;28;20036;-72
2023/05/15 01:45:34;;;;;;;;;;;13.70;99.90;;;;;;5013125;28;19933;-69
2023/05/15 01:48:01;;;;;;;;;;;13.70;99.90;;;;;;5018251;28;19929;-69
2023/05/15 01:50:30;;;;;;;;;;;13.70;99.90;;;;;;5026209;28;19926;-69
2023/05/15 01:53:01;;;;;;;;;;;13.70;99.90;;;;;;5027706;28;19932;-69
2023/05/15 01:55:29;;;;;;;;;;;13.60;99.90;;;;;;5019617;28;20440;-69
2023/05/15 01:57:56;;;;;;;;;;;13.60;99.90;;;;;;5028417;28;19932;-70
2023/05/15 02:00:23;;;;;;;;;;;13.60;99.90;;;;;;5020349;28;19929;-71
2023/05/15 02:02:53;;;;;;;;;;;13.60;99.90;;;;;;5027992;28;19931;-69
2023/05/15 02:05:20;;;;;;;;;;;13.60;99.90;;;;;;5028418;28;19930;-70
2023/05/15 02:07:47;;;;;;;;;;;13.60;99.90;;;;;;5021312;28;19925;-69
2023/05/15 02:10:16;;;;;;;;;;;13.60;99.90;;;;;;5026420;28;19932;-69
2023/05/15 02:12:47;;;;;;;;;;;13.60;99.90;;;;;;5019906;28;20383;-69
2023/05/15 02:15:14;;;;;;;;;;;13.60;99.90;;;;;;5043156;28;19932;-70
2023/05/15 02:17:40;;;;;;;;;;;13.50;99.90;;;;;;5014445;28;19930;-69
2023/05/15 02:20:09;;;;;;;;;;;13.50;99.90;;;;;;5011716;28;20423;-68
2023/05/15 02:22:38;;;;;;;;;;;13.50;99.90;;;;;;5014998;28;20297;-69
2023/05/15 02:25:05;;;;;;;;;;;13.50;99.90;;;;;;5006477;28;19926;-69
2023/05/15 02:27:34;;;;;;;;;;;13.40;99.90;;;;;;5017839;28;19932;-69
2023/05/15 02:30:06;;;;;;;;;;;13.40;99.90;;;;;;5023273;28;19929;-66
2023/05/15 02:32:38;;;;;;;;;;;13.30;99.90;;;;;;5043773;28;19943;-68
2023/05/15 02:35:12;;;;;;;;;;;13.20;99.90;;;;;;5016967;28;19925;-68
2023/05/15 02:37:41;;;;;;;;;;;13.20;99.90;;;;;;5008121;28;19925;-69
2023/05/15 02:40:10;;;;;;;;;;;13.20;99.90;;;;;;5016371;28;20392;-68
2023/05/15 02:42:39;;;;;;;;;;;13.10;99.90;;;;;;5005436;28;19933;-69
2023/05/15 02:45:07;;;;;;;;;;;13.10;99.90;;;;;;5015945;28;19933;-68
2023/05/15 02:47:35;;;;;;;;;;;13.10;99.90;;;;;;5027280;28;19925;-69
2023/05/15 02:50:02;;;;;;;;;;;13.10;99.90;;;;;;5028141;28;19929;-68
2023/05/15 02:52:33;;;;;;;;;;;13.00;99.90;;;;;;5021591;28;19975;-69
2023/05/15 02:55:01;;;;;;;;;;;13.00;99.90;;;;;;5017640;28;19925;-69
2023/05/15 02:57:28;;;;;;;;;;;13.00;99.90;;;;;;5011687;28;19932;-69
2023/05/15 02:59:55;;;;;;;;;;;13.00;99.90;;;;;;5023810;28;19925;-69
2023/05/15 03:02:22;;;;;;;;;;;13.00;99.90;;;;;;5012583;28;20021;-68
2023/05/15 03:04:49;;;;;;;;;;;13.00;99.90;;;;;;5021500;28;19932;-68
2023/05/15 03:07:16;;;;;;;;;;;13.00;99.90;;;;;;5017371;28;19933;-69
2023/05/15 03:09:43;;;;;;;;;;;12.90;99.90;;;;;;5016047;28;19925;-69
2023/05/15 03:12:11;;;;;;;;;;;12.90;99.90;;;;;;5024249;28;19925;-69
2023/05/15 03:14:38;;;;;;;;;;;12.80;99.90;;;;;;5004532;28;19925;-69
2023/05/15 03:17:05;;;;;;;;;;;12.80;99.90;;;;;;5018363;28;19925;-69
2023/05/15 03:19:31;;;;;;;;;;;12.80;99.90;;;;;;5012397;28;19930;-68
2023/05/15 03:21:58;;;;;;;;;;;12.70;99.90;;;;;;5018380;28;19926;-69
2023/05/15 03:24:25;;;;;;;;;;;12.70;99.90;;;;;;5022504;28;19935;-67
2023/05/15 03:26:52;;;;;;;;;;;12.60;99.90;;;;;;5017805;28;19930;-69
2023/05/15 03:29:20;;;;;;;;;;;12.60;99.90;;;;;;5023117;28;19948;-69
2023/05/15 03:31:47;;;;;;;;;;;12.60;99.90;;;;;;5018919;28;19925;-68
2023/05/15 03:34:14;;;;;;;;;;;12.50;99.90;;;;;;5018878;28;19925;-69
2023/05/15 03:36:41;;;;;;;;;;;12.50;99.90;;;;;;5023508;28;19926;-68
2023/05/15 03:39:07;;;;;;;;;;;12.40;99.90;;;;;;5025117;28;19968;-69
2023/05/15 03:41:34;;;;;;;;;;;12.40;99.90;;;;;;5024745;28;19925;-69
2023/05/15 03:44:01;;;;;;;;;;;12.40;99.90;;;;;;5020874;28;19925;-68
2023/05/15 03:46:29;;;;;;;;;;;12.40;99.90;;;;;;5028578;28;19963;-69
2023/05/15 03:48:56;;;;;;;;;;;12.40;99.90;;;;;;5024827;28;19932;-69
2023/05/15 03:51:23;;;;;;;;;;;12.40;99.90;;;;;;5031441;28;19936;-69
2023/05/15 03:53:54;;;;;;;;;;;12.40;99.90;;;;;;5015697;28;19930;-69
2023/05/15 03:56:23;;;;;;;;;;;12.40;99.90;;;;;;5023423;28;19929;-68
2023/05/15 03:58:49;;;;;;;;;;;12.40;99.90;;;;;;5029989;28;19925;-68
2023/05/15 04:01:16;;;;;;;;;;;12.40;99.90;;;;;;5030794;28;19921;-69
2023/05/15 04:03:44;;;;;;;;;;;12.50;99.90;;;;;;5028208;28;19925;-69
2023/05/15 04:06:11;;;;;;;;;;;12.50;99.90;;;;;;5024820;28;20372;-68
2023/05/15 04:08:38;;;;;;;;;;;12.50;99.90;;;;;;5008397;28;19922;-69
2023/05/15 04:11:05;;;;;;;;;;;12.50;99.90;;;;;;5009981;28;19921;-69
2023/05/15 04:13:32;;;;;;;;;;;12.50;99.90;;;;;;5029173;28;19929;-69
2023/05/15 04:15:59;;;;;;;;;;;12.50;99.90;;;;;;5031911;28;19921;-69
2023/05/15 04:18:26;;;;;;;;;;;12.50;99.90;;;;;;5017434;28;19927;-68
2023/05/15 04:20:54;;;;;;;;;;;12.50;99.90;;;;;;5021855;28;20020;-69
2023/05/15 04:23:21;;;;;;;;;;;12.50;99.90;;;;;;5023083;28;19936;-69
2023/05/15 04:25:48;;;;;;;;;;;12.50;99.90;;;;;;5021833;28;19925;-68
2023/05/15 04:28:15;;;;;;;;;;;12.50;99.90;;;;;;5024362;28;19926;-69
2023/05/15 04:30:42;;;;;;;;;;;12.60;99.90;;;;;;5023860;28;20092;-69
2023/05/15 04:33:09;;;;;;;;;;;12.60;99.90;;;;;;5016873;28;19925;-68
2023/05/15 04:35:36;;;;;;;;;;;12.50;99.90;;;;;;5014777;28;19922;-69
2023/05/15 04:38:05;;;;;;;;;;;12.60;99.90;;;;;;5018574;28;19932;-64
2023/05/15 04:40:31;;;;;;;;;;;12.60;99.90;;;;;;5012823;28;19933;-67
2023/05/15 04:42:58;;;;;;;;;;;12.60;99.90;;;;;;5013506;28;19928;-76
2023/05/15 04:45:25;;;;;;;;;;;12.60;99.90;;;;;;5013578;28;19937;-75
2023/05/15 04:47:52;;;;;;;;;;;12.60;99.90;;;;;;5012894;28;19928;-71
2023/05/15 04:50:19;;;;;;;;;;;12.60;99.90;;;;;;5010125;28;19921;-70
2023/05/15 04:52:45;;;;;;;;;;;12.50;99.90;;;;;;5012802;28;19921;-70
2023/05/15 04:55:14;;;;;;;;;;;12.40;99.90;;;;;;5013401;28;19944;-71
2023/05/15 04:57:40;;;;;;;;;;;12.30;99.90;;;;;;5011098;28;19926;-66
2023/05/15 05:00:11;;;;;;;;;;;12.20;99.90;;;;;;5013228;28;19941;-66
2023/05/15 05:02:37;;;;;;;;;;;12.20;99.90;;;;;;5009949;28;19930;-67
2023/05/15 05:05:06;;;;;;;;;;;12.20;99.90;;;;;;5011233;28;20277;-67
2023/05/15 05:07:32;;;;;;;;;;;12.20;99.90;;;;;;5015240;28;20009;-66
2023/05/15 05:09:59;;;;;;;;;;;12.10;99.90;;;;;;5019423;28;20051;-66
2023/05/15 05:12:27;;;;;;;;;;;12.10;99.90;;;;;;5012963;28;19925;-67
2023/05/15 05:14:55;;;;;;;;;;;12.00;99.90;;;;;;5016911;28;19936;-67
2023/05/15 05:17:22;;;;;;;;;;;12.10;99.90;;;;;;5015964;28;19933;-68
2023/05/15 05:19:48;;;;;;;;;;;12.00;99.90;;;;;;5021847;28;20462;-66
2023/05/15 05:22:15;;;;;;;;;;;11.90;99.90;;;;;;5015864;28;19933;-66
2023/05/15 05:24:42;;;;;;;;;;;11.90;99.90;;;;;;5027479;28;19925;-67
2023/05/15 05:27:09;;;;;;;;;;;11.90;99.90;;;;;;5020283;28;19929;-67
2023/05/15 05:29:38;;;;;;;;;;;11.80;99.90;;;;;;5015176;28;19925;-66
2023/05/15 05:32:05;;;;;;;;;;;11.90;99.90;;;;;;5023898;28;19925;-73
2023/05/15 05:34:32;;;;;;;;;;;11.90;99.90;;;;;;5013693;28;19936;-67
2023/05/15 05:36:59;;;;;;;;;;;12.00;99.90;;;;;;5018531;28;19933;-65
2023/05/15 05:39:26;;;;;;;;;;;12.00;99.90;;;;;;5019537;28;19925;-66
2023/05/15 05:41:52;;;;;;;;;;;12.00;99.90;;;;;;5015844;28;19932;-66
2023/05/15 05:44:19;;;;;;;;;;;11.90;99.90;;;;;;5021474;28;19925;-67
2023/05/15 05:46:48;;;;;;;;;;;12.00;99.90;;;;;;5017930;28;19925;-67
2023/05/15 05:49:14;;;;;;;;;;;12.00;99.90;;;;;;5023194;28;19925;-67
2023/05/15 05:51:41;;;;;;;;;;;12.00;99.90;;;;;;5015001;28;19932;-67
2023/05/15 05:54:08;;;;;;;;;;;12.10;99.90;;;;;;5019949;28;19925;-66
2023/05/15 05:56:35;;;;;;;;;;;12.10;99.90;;;;;;5007898;28;19929;-67
2023/05/15 05:59:01;;;;;;;;;;;12.10;99.90;;;;;;5016814;28;19929;-66
2023/05/15 06:01:28;;;;;;;;;;;12.10;99.90;;;;;;5011789;28;19933;-67
2023/05/15 06:03:57;;;;;;;;;;;12.00;99.90;;;;;;5014169;28;19925;-66
2023/05/15 06:06:23;;;;;;;;;;;12.00;99.90;;;;;;5020618;28;20020;-66
2023/05/15 06:08:50;;;;;;;;;;;11.90;99.90;;;;;;5016100;28;19925;-68
2023/05/15 06:11:17;;;;;;;;;;;11.90;99.90;;;;;;5012197;28;19925;-66
2023/05/15 06:13:44;;;;;;;;;;;11.90;99.90;;;;;;5015759;28;19933;-66
2023/05/15 06:16:11;;;;;;;;;;;11.90;99.90;;;;;;5010489;28;19925;-67
2023/05/15 06:18:37;;;;;;;;;;;11.90;99.90;;;;;;5010454;28;19940;-66
2023/05/15 06:21:06;;;;;;;;;;;11.90;99.90;;;;;;5018413;28;19935;-67
2023/05/15 06:23:32;;;;;;;;;;;12.00;99.90;;;;;;5017890;28;20373;-67
2023/05/15 06:26:00;;;;;;;;;;;12.00;99.90;;;;;;5017901;28;19929;-67
2023/05/15 06:28:27;;;;;;;;;;;12.10;99.90;;;;;;5024768;28;20025;-69
2023/05/15 06:30:54;;;;;;;;;;;12.10;99.90;;;;;;5023040;28;19925;-66
2023/05/15 06:33:21;;;;;;;;;;;12.30;99.90;;;;;;5023663;28;19932;-67
2023/05/15 06:35:47;;;;;;;;;;;12.30;99.90;;;;;;5016942;28;19953;-68
2023/05/15 06:38:16;;;;;;;;;;;12.40;99.90;;;;;;5018786;28;19929;-68
2023/05/15 06:40:42;;;;;;;;;;;12.50;99.90;;;;;;5020790;28;20388;-68
2023/05/15 06:43:09;;;;;;;;;;;12.50;99.90;;;;;;5017744;28;19944;-67
2023/05/15 06:45:36;;;;;;;;;;;12.50;99.90;;;;;;5025587;28;19929;-68
2023/05/15 06:48:03;;;;;;;;;;;12.60;99.90;;;;;;5023810;28;19925;-68
2023/05/15 06:50:30;;;;;;;;;;;12.70;99.90;;;;;;5017710;28;20003;-67
2023/05/15 06:52:56;;;;;;;;;;;12.70;99.90;;;;;;5015580;28;20428;-67
2023/05/15 06:55:25;;;;;;;;;;;12.90;99.90;;;;;;5017682;28;19932;-68
2023/05/15 06:57:52;;;;;;;;;;;13.00;99.90;;;;;;5015640;28;19929;-68
2023/05/15 07:00:19;;;;;;;;;;;13.00;99.90;;;;;;5021522;28;19926;-67
2023/05/15 07:02:45;;;;;;;;;;;13.10;99.90;;;;;;5021339;28;19956;-65
2023/05/15 07:05:14;;;;;;;;;;;13.10;99.90;;;;;;5021004;28;19932;-68
2023/05/15 07:07:41;;;;;;;;;;;13.20;99.90;;;;;;5020306;28;19929;-67
2023/05/15 07:10:09;;;;;;;;;;;13.30;99.90;;;;;;5016911;28;19964;-67
2023/05/15 07:12:37;;;;;;;;;;;13.30;99.90;;;;;;5011638;28;20360;-68
2023/05/15 07:15:04;;;;;;;;;;;13.00;99.90;;;;;;5022646;28;19926;-67
2023/05/15 07:17:31;;;;;;;;;;;13.00;99.90;;;;;;5015009;28;19941;-69
2023/05/15 07:19:58;;;;;;;;;;;12.80;99.90;;;;;;5025972;28;20333;-67
2023/05/15 07:22:26;;;;;;;;;;;12.90;99.90;;;;;;5014019;28;19925;-67
2023/05/15 07:24:53;;;;;;;;;;;12.90;99.90;;;;;;5038817;28;20365;-67
2023/05/15 07:27:20;;;;;;;;;;;13.00;99.90;;;;;;5021827;28;19933;-69
2023/05/15 07:29:48;;;;;;;;;;;13.00;99.90;;;;;;5029861;28;19925;-67
2023/05/15 07:32:15;;;;;;;;;;;13.00;99.90;;;;;;5024328;28;19940;-67
2023/05/15 07:34:42;;;;;;;;;;;13.00;99.90;;;;;;5015788;28;19937;-69
2023/05/15 07:37:09;;;;;;;;;;;13.20;99.90;;;;;;5020379;28;19961;-68
2023/05/15 07:39:36;;;;;;;;;;;13.20;99.90;;;;;;5024061;28;19929;-67
2023/05/15 07:42:03;;;;;;;;;;;13.20;99.90;;;;;;5013230;28;19929;-68
2023/05/15 07:44:29;;;;;;;;;;;13.10;99.90;;;;;;5019947;28;19932;-66
2023/05/15 07:46:58;;;;;;;;;;;13.20;99.90;;;;;;5018871;28;19929;-67
2023/05/15 07:49:25;;;;;;;;;;;13.40;99.90;;;;;;5026928;28;20396;-67
2023/05/15 07:51:51;;;;;;;;;;;13.40;99.90;;;;;;5026373;28;19925;-68
2023/05/15 07:54:18;;;;;;;;;;;13.40;99.90;;;;;;5019798;28;19932;-67
2023/05/15 07:56:45;;;;;;;;;;;13.60;99.90;;;;;;5025365;28;19926;-67
2023/05/15 07:59:12;;;;;;;;;;;13.60;99.90;;;;;;5019534;28;20325;-69
2023/05/15 08:01:38;;;;;;;;;;;13.50;99.90;;;;;;5029916;28;20474;-67
2023/05/15 08:04:08;;;;;;;;;;;13.50;99.90;;;;;;5017310;28;19926;-67
2023/05/15 08:06:36;;;;;;;;;;;13.50;99.90;;;;;;5012719;28;19926;-67
2023/05/15 08:09:04;;;;;;;;;;;13.60;99.90;;;;;;5009212;28;19930;-69
2023/05/15 08:11:30;;;;;;;;;;;13.70;99.90;;;;;;5017504;28;20028;-69
2023/05/15 08:13:57;;;;;;;;;;;13.60;99.90;;;;;;5019179;28;19952;-68
2023/05/15 08:16:24;;;;;;;;;;;13.50;99.90;;;;;;5023359;28;19951;-69
2023/05/15 08:18:52;;;;;;;;;;;13.60;99.90;;;;;;5022710;28;19929;-68
2023/05/15 08:21:20;;;;;;;;;;;13.60;99.90;;;;;;5017541;28;20372;-68
2023/05/15 08:23:47;;;;;;;;;;;13.80;99.90;;;;;;5012654;28;20385;-68
2023/05/15 08:26:14;;;;;;;;;;;13.80;99.90;;;;;;5015784;28;19925;-67
2023/05/15 08:28:40;;;;;;;;;;;14.00;99.90;;;;;;5020502;28;19925;-69
2023/05/15 08:31:07;;;;;;;;;;;14.20;99.90;;;;;;5018942;28;20416;-68
2023/05/15 08:33:34;;;;;;;;;;;14.30;99.90;;;;;;5018450;28;19940;-68
2023/05/15 08:36:01;;;;;;;;;;;14.40;99.90;;;;;;5022874;28;19932;-67
2023/05/15 08:38:30;;;;;;;;;;;14.60;99.90;;;;;;5022952;28;19932;-68
2023/05/15 08:40:58;;;;;;;;;;;14.70;99.90;;;;;;5017829;28;19930;-68
2023/05/15 08:43:26;;;;;;;;;;;14.70;99.90;;;;;;5011914;28;19934;-68
2023/05/15 08:45:53;;;;;;;;;;;14.70;99.90;;;;;;5010467;28;19924;-68
2023/05/15 08:48:21;;;;;;;;;;;14.60;99.90;;;;;;5017002;28;19932;-68
2023/05/15 08:50:48;;;;;;;;;;;14.60;99.90;;;;;;5021414;28;20019;-67
2023/05/15 08:53:15;;;;;;;;;;;14.70;99.90;;;;;;5024941;28;19925;-68
2023/05/15 08:55:44;;;;;;;;;;;14.80;99.90;;;;;;5018285;28;19936;-67
2023/05/15 08:58:11;;;;;;;;;;;14.80;99.90;;;;;;5017737;28;19926;-67
2023/05/15 09:00:38;;;;;;;;;;;15.00;99.90;;;;;;5014941;28;20463;-68
2023/05/15 09:03:05;;;;;;;;;;;15.20;99.90;;;;;;5025889;28;19925;-67
2023/05/15 09:05:32;;;;;;;;;;;15.20;99.90;;;;;;5023248;28;19934;-69
2023/05/15 09:08:00;;;;;;;;;;;15.20;99.90;;;;;;5011592;28;19926;-68
2023/05/15 09:10:28;;;;;;;;;;;15.20;99.90;;;;;;5010549;28;19987;-69
2023/05/15 09:12:57;;;;;;;;;;;15.10;99.90;;;;;;5012581;28;19925;-68
2023/05/15 09:15:24;;;;;;;;;;;15.30;99.90;;;;;;5017004;28;20436;-69
2023/05/15 09:17:52;;;;;;;;;;;15.40;99.90;;;;;;5021114;28;19925;-68
2023/05/15 09:20:26;;;;;;;;;;;15.50;99.90;;;;;;5011401;28;19932;-70
2023/05/15 09:22:53;;;;;;;;;;;15.50;99.90;;;;;;5019623;28;19953;-69
2023/05/15 09:25:32;;;;;;;;;;;15.50;99.90;;;;;;5018921;28;19926;-67
2023/05/15 09:28:00;;;;;;;;;;;15.80;99.90;;;;;;5020555;28;19925;-67
2023/05/15 09:30:29;;;;;;;;;;;15.90;99.90;;;;;;5018661;28;20389;-68
2023/05/15 09:32:56;;;;;;;;;;;15.90;99.90;;;;;;5024344;28;19925;-69
2023/05/15 09:35:33;;;;;;;;;;;16.00;99.90;;;;;;5023731;28;20028;-69
2023/05/15 09:38:00;;;;;;;;;;;16.00;99.90;;;;;;5015613;28;19926;-68
2023/05/15 09:40:30;;;;;;;;;;;16.20;99.90;;;;;;5021353;28;20418;-68
2023/05/15 09:42:57;;;;;;;;;;;16.20;99.90;;;;;;5016190;28;20355;-68
2023/05/15 09:45:28;;;;;;;;;;;16.40;99.90;;;;;;5017705;28;19926;-69
2023/05/15 09:47:55;;;;;;;;;;;16.40;99.90;;;;;;5022856;28;19961;-70
2023/05/15 09:50:23;;;;;;;;;;;16.40;99.90;;;;;;5017592;28;19925;-68
2023/05/15 09:52:50;;;;;;;;;;;16.40;99.90;;;;;;5018256;28;19995;-69
2023/05/15 09:55:18;;;;;;;;;;;16.60;99.90;;;;;;5017890;28;19932;-68
2023/05/15 09:57:45;;;;;;;;;;;16.60;99.90;;;;;;5020694;28;19932;-68
2023/05/15 10:00:12;;;;;;;;;;;16.70;99.90;;;;;;5021229;28;19932;-68
2023/05/15 10:02:41;;;;;;;;;;;16.60;99.90;;;;;;5022545;28;19929;-68
2023/05/15 10:05:08;;;;;;;;;;;16.60;99.90;;;;;;5016676;28;19925;-68
2023/05/15 10:07:35;;;;;;;;;;;16.80;99.90;;;;;;5010629;28;19960;-68
2023/05/15 10:10:03;;;;;;;;;;;16.90;99.90;;;;;;5015179;28;20364;-68
2023/05/15 10:12:30;;;;;;;;;;;16.80;99.90;;;;;;5010961;28;20562;-67
2023/05/15 10:14:58;;;;;;;;;;;17.00;99.90;;;;;;5023641;28;19936;-68
2023/05/15 10:17:25;;;;;;;;;;;17.10;99.90;;;;;;5011947;28;19932;-66
2023/05/15 10:19:54;;;;;;;;;;;17.30;99.90;;;;;;5013176;28;19929;-68
2023/05/15 10:22:23;;;;;;;;;;;17.30;99.90;;;;;;5017248;28;19925;-67
2023/05/15 10:24:52;;;;;;;;;;;17.30;99.90;;;;;;5013007;28;20005;-69
2023/05/15 10:27:20;;;;;;;;;;;17.10;99.90;;;;;;5012739;28;19926;-69
2023/05/15 10:29:48;;;;;;;;;;;17.00;99.90;;;;;;5017255;28;19944;-69
2023/05/15 10:32:15;;;;;;;;;;;17.30;99.90;;;;;;5016097;28;20472;-68
2023/05/15 10:34:43;;;;;;;;;;;17.50;99.90;;;;;;5004731;28;19929;-67
2023/05/15 10:37:12;;;;;;;;;;;17.60;99.90;;;;;;5010330;28;20397;-68
2023/05/15 10:39:39;;;;;;;;;;;17.60;99.90;;;;;;5008293;28;19925;-67
2023/05/15 10:42:07;;;;;;;;;;;17.70;99.90;;;;;;5009248;28;19926;-69
2023/05/15 10:44:34;;;;;;;;;;;18.00;99.90;;;;;;5017123;28;19925;-70
2023/05/15 10:47:01;;;;;;;;;;;18.00;99.90;;;;;;5010527;28;19926;-68
2023/05/15 10:49:28;;;;;;;;;;;18.00;99.90;;;;;;5016089;28;19996;-68
2023/05/15 10:51:56;;;;;;;;;;;17.80;99.90;;;;;;5009967;28;20347;-68
2023/05/15 10:54:24;;;;;;;;;;;17.90;99.90;;;;;;5020590;28;19984;-69
2023/05/15 10:56:51;;;;;;;;;;;18.10;99.90;;;;;;5020757;28;19925;-67
2023/05/15 10:59:18;;;;;;;;;;;18.20;99.90;;;;;;5015085;28;19925;-68
2023/05/15 11:01:44;;;;;;;;;;;18.30;99.90;;;;;;5017820;28;20633;-68
2023/05/15 11:04:12;;;;;;;;;;;18.50;99.90;;;;;;5022823;28;19925;-69
2023/05/15 11:06:39;;;;;;;;;;;18.70;99.90;;;;;;5009486;28;20352;-67
2023/05/15 11:09:25;;;;;;;;;;;18.90;99.90;;;;;;5017645;28;19925;-68
2023/05/15 11:11:56;;;;;;;;;;;19.10;99.90;;;;;;5024674;28;19925;-70
2023/05/15 11:14:23;;;;;;;;;;;19.20;99.90;;;;;;5016442;28;19925;-70
2023/05/15 11:16:57;;;;;;;;;;;19.20;99.90;;;;;;5022566;28;19929;-67
2023/05/15 11:19:24;;;;;;;;;;;19.30;99.90;;;;;;5012264;28;20005;-68
2023/05/15 11:21:56;;;;;;;;;;;19.20;99.90;;;;;;5025242;28;20468;-67
2023/05/15 11:24:26;;;;;;;;;;;19.10;99.90;;;;;;5016511;28;19937;-69
2023/05/15 11:26:59;;;;;;;;;;;19.30;99.90;;;;;;5028457;28;19936;-66
2023/05/15 11:29:26;;;;;;;;;;;19.20;99.90;;;;;;5013955;28;19932;-68
2023/05/15 11:31:52;;;;;;;;;;;19.30;99.90;;;;;;5021949;28;19929;-69
2023/05/15 11:34:28;;;;;;;;;;;20.00;99.90;;;;;;5014812;28;19925;-68
2023/05/15 11:36:55;;;;;;;;;;;21.20;99.90;;;;;;5010952;28;19926;-69
2023/05/15 11:39:23;;;;;;;;;;;22.30;99.90;;;;;;5014908;28;19932;-68
2023/05/15 11:41:50;;;;;;;;;;;23.10;99.90;;;;;;5012968;28;20407;-68
2023/05/15 11:44:21;;;;;;;;;;;23.60;99.90;;;;;;5010034;28;19932;-71
2023/05/15 11:46:48;;;;;;;;;;;23.90;99.90;;;;;;5009259;28;20305;-68
2023/05/15 11:49:15;;;;;;;;;;;23.80;99.90;;;;;;5010563;28;20470;-68
2023/05/15 11:51:42;;;;;;;;;;;24.10;99.90;;;;;;5005846;28;19929;-68
2023/05/15 11:54:10;;;;;;;;;;;24.60;99.90;;;;;;5010896;28;19925;-69
2023/05/15 11:56:42;;;;;;;;;;;24.50;99.90;;;;;;5002158;28;20012;-68
2023/05/15 11:59:09;;;;;;;;;;;25.10;99.90;;;;;;5018110;28;20024;-68
2023/05/15 12:01:41;;;;;;;;;;;25.90;99.90;;;;;;5025770;28;19925;-69
2023/05/15 12:04:14;;;;;;;;;;;26.10;99.90;;;;;;5021717;28;20032;-69
2023/05/15 12:06:43;;;;;;;;;;;25.90;99.90;;;;;;5011302;28;19927;-68
2023/05/15 12:09:13;;;;;;;;;;;25.70;99.90;;;;;;5012330;28;20348;-68
2023/05/15 12:11:39;;;;;;;;;;;25.80;99.90;;;;;;5016929;28;19948;-68
2023/05/15 12:14:10;;;;;;;;;;;26.10;99.90;;;;;;5016764;28;19925;-70
2023/05/15 12:16:37;;;;;;;;;;;26.50;99.90;;;;;;5017369;28;19926;-68
2023/05/15 12:19:05;;;;;;;;;;;26.40;99.90;;;;;;5012826;28;20000;-68
2023/05/15 12:21:32;;;;;;;;;;;25.90;99.90;;;;;;5037272;28;19940;-65
2023/05/15 12:23:59;;;;;;;;;;;25.00;99.90;;;;;;5020902;28;19929;-68
2023/05/15 12:26:27;;;;;;;;;;;25.10;99.90;;;;;;5020567;28;20139;-68
2023/05/15 12:28:54;;;;;;;;;;;25.20;99.90;;;;;;5018554;28;19949;-68
2023/05/15 12:31:21;;;;;;;;;;;25.60;99.90;;;;;;5020745;28;19972;-71
2023/05/15 12:33:48;;;;;;;;;;;26.20;99.90;;;;;;5018252;28;19972;-68
2023/05/15 12:36:19;;;;;;;;;;;26.10;99.90;;;;;;5019169;28;19925;-68
2023/05/15 12:38:46;;;;;;;;;;;25.30;99.90;;;;;;5026134;28;19925;-68
2023/05/15 12:41:13;;;;;;;;;;;25.20;99.90;;;;;;5023756;28;19925;-68
2023/05/15 12:43:40;;;;;;;;;;;25.50;99.90;;;;;;5021227;28;19925;-70
2023/05/15 12:46:06;;;;;;;;;;;25.70;99.90;;;;;;5017692;28;19929;-68
2023/05/15 12:48:33;;;;;;;;;;;25.80;99.90;;;;;;5018655;28;19925;-68
2023/05/15 12:51:07;;;;;;;;;;;25.50;99.90;;;;;;5020616;28;19929;-69
2023/05/15 12:53:38;;;;;;;;;;;25.50;99.90;;;;;;5018316;28;19925;-68
2023/05/15 12:56:05;;;;;;;;;;;24.90;99.90;;;;;;5012165;28;19925;-71
2023/05/15 12:58:32;;;;;;;;;;;24.50;99.90;;;;;;5019209;28;19934;-68
2023/05/15 13:01:01;;;;;;;;;;;25.00;99.90;;;;;;5018884;28;19936;-71
2023/05/15 13:03:28;;;;;;;;;;;24.70;99.90;;;;;;5013832;28;19984;-67
2023/05/15 13:05:55;;;;;;;;;;;25.20;99.90;;;;;;5022023;28;19926;-69
2023/05/15 13:08:22;;;;;;;;;;;25.40;99.90;;;;;;5016279;28;19932;-68
2023/05/15 13:10:56;;;;;;;;;;;25.30;99.90;;;;;;5015140;28;19929;-68
2023/05/15 13:13:22;;;;;;;;;;;24.70;99.90;;;;;;5011140;28;20270;-67
2023/05/15 13:15:50;;;;;;;;;;;25.30;99.90;;;;;;5017112;28;20368;-70
2023/05/15 13:18:17;;;;;;;;;;;25.80;99.90;;;;;;5015258;28;19964;-68
2023/05/15 13:20:45;;;;;;;;;;;25.50;99.90;;;;;;5018504;28;19976;-68
2023/05/15 13:23:13;;;;;;;;;;;25.50;99.90;;;;;;5019243;28;19979;-68
2023/05/15 13:25:40;;;;;;;;;;;25.10;99.90;;;;;;5019160;28;19957;-68
2023/05/15 13:28:09;;;;;;;;;;;24.40;99.90;;;;;;5011114;28;19933;-68
2023/05/15 13:30:40;;;;;;;;;;;24.60;99.90;;;;;;5016408;28;19939;-68
2023/05/15 13:33:07;;;;;;;;;;;25.30;99.90;;;;;;5018661;28;19939;-68
2023/05/15 13:35:34;;;;;;;;;;;25.70;99.90;;;;;;5019407;28;19930;-68
2023/05/15 13:38:03;;;;;;;;;;;24.90;99.90;;;;;;5016996;28;20211;-70
2023/05/15 13:40:31;;;;;;;;;;;24.80;99.90;;;;;;5019360;28;19955;-69
2023/05/15 13:42:58;;;;;;;;;;;24.80;99.90;;;;;;5026993;28;19979;-68
2023/05/15 13:45:26;;;;;;;;;;;24.60;99.90;;;;;;5013162;28;19925;-68
2023/05/15 13:47:53;;;;;;;;;;;24.70;99.90;;;;;;5015444;28;19925;-68
2023/05/15 13:50:19;;;;;;;;;;;24.00;99.90;;;;;;5011421;28;19953;-68
2023/05/15 13:52:46;;;;;;;;;;;23.50;99.90;;;;;;5011804;28;19925;-68
2023/05/15 13:55:13;;;;;;;;;;;23.90;99.90;;;;;;5013789;28;19925;-71
2023/05/15 13:57:41;;;;;;;;;;;23.90;99.90;;;;;;5019111;28;19925;-69
2023/05/15 14:00:09;;;;;;;;;;;24.70;99.90;;;;;;5016745;28;19940;-70
2023/05/15 14:02:37;;;;;;;;;;;24.70;99.90;;;;;;5010781;28;19925;-68
2023/05/15 14:05:05;;;;;;;;;;;24.80;99.90;;;;;;5019962;28;19933;-68
2023/05/15 14:07:32;;;;;;;;;;;23.40;99.90;;;;;;5024028;28;19965;-70
2023/05/15 14:09:59;;;;;;;;;;;22.20;99.90;;;;;;5014308;28;19929;-68
2023/05/15 14:12:25;;;;;;;;;;;21.40;99.90;;;;;;5019294;28;20344;-68
2023/05/15 14:14:52;;;;;;;;;;;21.00;99.90;;;;;;5016918;28;19925;-68
2023/05/15 14:17:19;;;;;;;;;;;20.80;99.90;;;;;;5007124;28;19929;-73
2023/05/15 14:19:48;;;;;;;;;;;20.70;99.90;;;;;;5027011;28;19932;-69